Topeka, Illinois
Current Conditions -  °F | °C
As of 1:54 AM on Saturday 29 Nov 2014 (Local Time) from KPIA Reporting Station
Clear Clear  
Wind Chill: 28°   Ceiling: Unl
Heat Index: 37°   Visibility: 10mi
Dew Point: 31°   Wind: 14mph
Humidity: 79%   Direction: 170°S
Pressure: 29.79"   Gusts: NA
Location:  40.33°N, 89.93°W
Report Text: KPIA 290754Z 17012KT 10SM CLR 03/M01 A2979 RMK AO2 SLP092 T00281006
Loading
Personal Weather Stations






























Interactive Weather Map New forecast layout! Learn more

10-Day Weather Forecast

Advertisements
Track Severe Weather on mobile